Fruitland, New Mexico
Current Conditions -  °F | °C
As of 12:53 PM on Saturday 25 Oct 2014 (Local Time) from KFMN Reporting Station
Clear Clear  
Wind Chill: 71°   Ceiling: Unl
Heat Index: 71°   Visibility: 10mi
Dew Point: 29°   Wind: 5mph
Humidity: 21%   Direction: NA
Pressure: 30.27"   Gusts: NA
Location:  36.74°N, 108.39°W
Report Text: KFMN 251853Z VRB04KT 10SM CLR 22/M02 A3027 RMK AO2 SLP215 T02171017
Loading
Personal Weather Stations






























Interactive Weather Map
Tropical Storm Tracking
New forecast layout! Learn more

10-Day Weather Forecast

Advertisements
Track Severe Weather on mobile